Time;durP1;ratioP1;P1;durP2;ratioP2;P2;SDS_P1;SDS_P2;PMS_P1;PMS_P2;Temp;Humidity;BMP_temperature;BMP_pressure;BME280_temperature;BME280_humidity;BME280_pressure;Samples;Min_cycle;Max_cycle;Signal;HPM_P1;HPM_P2
2022/09/15 00:01:10;;;;;;;9.65;3.60;;;;;;;22.72;68.25;100027.75;5034654;28;20056;-82
2022/09/15 00:03:55;;;;;;;10.20;3.05;;;;;;;23.52;66.38;100021.53;5037029;28;20067;-80
2022/09/15 00:06:40;;;;;;;5.72;2.90;;;;;;;23.53;66.18;100014.78;5050830;28;20056;-80
2022/09/15 00:09:25;;;;;;;9.93;2.30;;;;;;;23.71;65.20;100017.28;5053968;28;20048;-78
2022/09/15 00:12:09;;;;;;;9.40;3.17;;;;;;;23.36;66.63;100013.03;5054130;28;20514;-79
2022/09/15 00:14:54;;;;;;;7.15;2.50;;;;;;;23.78;64.74;100023.50;5055775;28;20052;-78
2022/09/15 00:17:39;;;;;;;7.55;3.08;;;;;;;24.01;63.77;100019.16;5034470;28;20056;-78
2022/09/15 00:20:24;;;;;;;6.63;2.75;;;;;;;24.10;63.34;100011.06;5037492;28;20053;-79
2022/09/15 00:23:10;;;;;;;9.77;3.75;;;;;;;23.61;64.17;100016.25;5035923;28;20607;-77
2022/09/15 00:25:55;;;;;;;21.67;4.28;;;;;;;22.97;66.54;100008.03;5036711;28;20055;-79
2022/09/15 00:28:40;;;;;;;;;;;;;;;23.06;67.21;100013.06;5054392;28;20052;-76
2022/09/15 00:31:27;;;;;;;8.80;2.85;;;;;;;23.72;65.08;100019.63;5055689;28;19916;-82
2022/09/15 00:34:12;;;;;;;5.05;3.28;;;;;;;23.92;64.12;100005.03;5055743;28;20542;-81
2022/09/15 00:36:57;;;;;;;12.45;3.72;;;;;;;23.47;64.43;100005.34;5057582;28;20055;-80
2022/09/15 00:39:42;;;;;;;9.20;3.85;;;;;;;21.03;74.01;100005.00;5053585;28;20511;-78
2022/09/15 00:42:27;;;;;;;6.97;3.75;;;;;;;20.59;77.09;100022.13;5054353;28;20051;-79
2022/09/15 00:45:15;;;;;;;10.13;4.13;;;;;;;21.59;74.06;100025.97;5054139;28;20052;-79
2022/09/15 00:48:01;;;;;;;12.73;4.50;;;;;;;21.90;71.58;100015.84;5038992;28;20053;-79
2022/09/15 00:50:54;;;;;;;12.32;4.28;;;;;;;21.88;71.39;100013.50;5033843;28;20056;-80
2022/09/15 00:53:39;;;;;;;8.18;3.67;;;;;;;21.75;71.72;100013.22;5033830;28;20404;-80
2022/09/15 00:56:25;;;;;;;9.90;4.15;;;;;;;21.62;71.93;100005.81;5039634;28;20060;-78
2022/09/15 00:59:16;;;;;;;7.90;4.25;;;;;;;21.44;73.53;100010.69;5033465;28;20408;-80
2022/09/15 01:02:20;;;;;;;6.88;4.55;;;;;;;21.37;73.80;100011.53;5034276;28;20044;-78
2022/09/15 01:05:10;;;;;;;6.28;4.18;;;;;;;21.40;74.39;100010.72;5035492;28;20056;-80
2022/09/15 01:08:02;;;;;;;12.50;4.38;;;;;;;21.29;72.99;100007.22;5043284;28;20043;-78
2022/09/15 01:10:48;;;;;;;10.07;5.18;;;;;;;20.25;79.44;100013.53;5056157;28;20095;-78
2022/09/15 01:13:32;;;;;;;9.73;4.20;;;;;;;20.62;77.91;99999.25;5053702;28;20052;-80
2022/09/15 01:16:27;;;;;;;;;;;;;;;21.07;75.28;99992.72;5055620;28;20059;-76
2022/09/15 01:19:50;;;;;;;12.75;4.20;;;;;;;20.74;76.49;99987.75;5038576;28;19917;-79
2022/09/15 01:22:50;;;;;;;11.75;4.78;;;;;;;20.60;78.40;99983.06;5034586;28;20049;-79
2022/09/15 01:26:06;;;;;;;8.45;4.32;;;;;;;21.32;74.42;99974.03;5034386;28;20044;-78
2022/09/15 01:29:21;;;;;;;8.63;3.40;;;;;;;21.39;73.38;99975.94;5053194;28;20048;-77
2022/09/15 01:35:34;;;;;;;5.90;2.65;;;;;;;22.28;71.56;99983.47;5042989;28;20536;-78
2022/09/15 01:38:44;;;;;;;10.10;3.22;;;;;;;22.63;69.51;99985.84;5054972;28;20052;-78
2022/09/15 01:41:37;;;;;;;8.38;4.78;;;;;;;22.55;68.28;99989.91;5051425;28;20056;-78
2022/09/15 01:44:42;;;;;;;11.27;4.73;;;;;;;20.84;75.39;100004.28;5052953;28;20048;-77
2022/09/15 01:47:28;;;;;;;6.47;4.43;;;;;;;20.84;75.23;100001.50;5031947;28;20531;-79
2022/09/15 01:50:21;;;;;;;12.27;4.60;;;;;;;21.16;73.80;100000.59;5049553;28;20048;-80
2022/09/15 01:53:14;;;;;;;9.68;5.30;;;;;;;20.92;74.54;100008.59;5032111;28;20053;-79
2022/09/15 01:56:04;;;;;;;10.88;4.75;;;;;;;20.35;78.76;100008.00;5042244;28;20522;-78
2022/09/15 01:58:50;;;;;;;11.15;4.60;;;;;;;20.72;76.85;100003.94;5032054;28;20052;-79
2022/09/15 02:01:43;;;;;;;11.18;5.35;;;;;;;20.79;76.56;100003.91;5032076;28;20519;-78
2022/09/15 02:04:45;;;;;;;9.35;4.80;;;;;;;20.47;77.96;100001.25;5032462;28;20049;-80
2022/09/15 02:07:35;;;;;;;14.07;4.68;;;;;;;20.42;77.82;99985.09;5032563;28;20048;-78
2022/09/15 02:10:36;;;;;;;8.88;5.05;;;;;;;20.54;78.36;99989.41;5031456;28;20523;-80
2022/09/15 02:13:41;;;;;;;8.82;5.32;;;;;;;21.09;74.37;99979.25;5031953;28;20519;-78
2022/09/15 02:16:33;;;;;;;8.02;5.10;;;;;;;21.04;74.55;99965.06;5035422;28;20056;-78
2022/09/15 02:19:33;;;;;;;8.40;3.88;;;;;;;21.92;72.59;99963.66;5056057;28;20045;-79
2022/09/15 02:22:23;;;;;;;9.77;4.93;;;;;;;21.43;72.67;99956.56;5052476;28;20052;-77
2022/09/15 02:25:12;;;;;;;4.32;3.58;;;;;;;21.31;73.48;99961.38;5051954;28;20407;-78
2022/09/15 02:28:04;;;;;;;5.35;3.40;;;;;;;21.99;71.03;99950.53;5045640;28;20531;-78
2022/09/15 02:30:53;;;;;;;8.48;4.13;;;;;;;21.91;70.63;99937.16;5032539;28;20041;-80
2022/09/15 02:33:43;;;;;;;10.60;4.68;;;;;;;21.55;72.07;99925.63;5032530;28;20526;-79
2022/09/15 02:36:29;;;;;;;7.57;3.45;;;;;;;21.90;72.01;99932.81;5032572;28;20519;-77
2022/09/15 02:39:18;;;;;;;7.95;3.45;;;;;;;22.63;69.02;99918.53;5041637;28;20067;-78
2022/09/15 02:42:03;;;;;;;5.15;3.25;;;;;;;23.16;66.72;99913.03;5060547;28;20056;-79
2022/09/15 02:44:48;;;;;;;3.45;2.65;;;;;;;23.33;65.57;99911.19;5078658;28;20052;-77
2022/09/15 02:47:32;;;;;;;9.70;3.33;;;;;;;23.57;64.58;99903.72;5066660;28;20052;-80
2022/09/15 02:50:19;;;;;;;6.35;3.40;;;;;;;23.51;64.32;99899.84;5080183;28;20415;-79
2022/09/15 02:53:04;;;;;;;281.90;48.78;;;;;;;23.56;63.89;99885.47;5075333;28;20043;-79
2022/09/15 02:55:49;;;;;;;25.48;8.20;;;;;;;23.49;63.55;99880.81;5076810;28;20044;-80
2022/09/15 02:58:34;;;;;;;14.50;4.50;;;;;;;23.21;64.50;99868.16;5070544;28;20048;-77
2022/09/15 03:01:18;;;;;;;11.73;4.60;;;;;;;23.25;64.38;99855.06;5070398;23;20061;-75
2022/09/15 03:04:04;;;;;;;8.02;3.97;;;;;;;23.41;63.85;99852.41;5054085;28;20048;-75
2022/09/15 03:06:49;;;;;;;11.20;4.00;;;;;;;23.23;64.30;99840.03;5061817;28;20059;-77
2022/09/15 03:09:33;;;;;;;;;;;;;;;23.26;64.34;99839.94;5061795;28;20035;-77
2022/09/15 03:12:18;;;;;;;11.57;3.28;;;;;;;23.36;64.13;99857.66;5066751;28;20310;-77
2022/09/15 03:15:03;;;;;;;15.77;3.83;;;;;;;23.12;64.46;99850.50;5069292;28;20447;-77
2022/09/15 03:17:48;;;;;;;13.85;4.50;;;;;;;23.21;64.64;99848.00;5062271;28;20048;-77
2022/09/15 03:20:33;;;;;;;13.05;4.68;;;;;;;22.99;64.57;99845.56;5061489;28;20044;-75
2022/09/15 03:23:18;;;;;;;8.77;3.42;;;;;;;22.87;65.03;99834.25;5074541;28;20056;-75
2022/09/15 03:26:03;;;;;;;9.93;3.90;;;;;;;23.00;65.22;99835.25;5074774;28;20047;-77
2022/09/15 03:28:48;;;;;;;8.52;4.07;;;;;;;22.22;67.09;99827.25;5070650;28;20056;-78
2022/09/15 03:31:33;;;;;;;8.77;3.97;;;;;;;20.96;72.70;99833.63;5054085;28;20052;-77
2022/09/15 03:34:17;;;;;;;;;;;;;;;21.77;70.20;99832.91;5054689;28;20055;-77
2022/09/15 03:37:02;;;;;;;7.25;3.20;;;;;;;22.06;69.42;99809.25;5054302;28;19913;-78
2022/09/15 03:39:47;;;;;;;6.05;3.15;;;;;;;22.53;67.32;99806.63;5046005;28;20048;-78
2022/09/15 03:42:32;;;;;;;8.63;3.15;;;;;;;23.06;65.44;99805.06;5034247;28;20052;-77
2022/09/15 03:45:17;;;;;;;11.18;3.30;;;;;;;23.26;64.73;99814.22;5034107;28;20048;-77
2022/09/15 03:48:04;;;;;;;8.15;3.05;;;;;;;23.14;64.93;99803.72;5034078;28;20053;-78
2022/09/15 03:50:50;;;;;;;12.68;3.05;;;;;;;23.34;64.05;99807.31;5046569;28;20055;-77
2022/09/15 03:53:37;;;;;;;9.32;2.90;;;;;;;23.35;63.95;99820.00;5055803;28;20056;-77
2022/09/15 03:56:26;;;;;;;8.60;2.78;;;;;;;23.41;63.39;99834.97;5042847;28;20044;-77
2022/09/15 03:59:10;;;;;;;9.77;4.05;;;;;;;23.31;63.67;99835.94;5068490;28;20056;-77
2022/09/15 04:01:55;;;;;;;4.53;2.28;;;;;;;23.22;63.80;99844.00;5039876;28;20057;-77
2022/09/15 04:04:40;;;;;;;8.40;2.80;;;;;;;23.31;63.67;99841.47;5033818;28;20408;-77
2022/09/15 04:07:25;;;;;;;7.95;3.47;;;;;;;23.17;63.76;99856.34;5043058;28;20428;-77
2022/09/15 04:10:10;;;;;;;8.23;3.17;;;;;;;22.61;64.90;99853.22;5036742;28;20036;-77
2022/09/15 04:12:54;;;;;;;4.32;2.72;;;;;;;22.61;65.81;99833.81;5033518;28;20052;-77
2022/09/15 04:15:39;;;;;;;6.10;3.20;;;;;;;22.85;64.90;99834.69;5033578;28;20048;-77
2022/09/15 04:18:24;;;;;;;10.20;2.92;;;;;;;23.10;64.32;99827.97;5049613;28;20060;-77
2022/09/15 04:21:16;;;;;;;9.43;2.70;;;;;;;23.27;63.60;99835.19;5060135;28;20053;-77
2022/09/15 04:24:03;;;;;;;5.75;3.42;;;;;;;23.31;63.03;99833.16;5055365;28;20056;-77
2022/09/15 04:26:48;;;;;;;12.93;3.35;;;;;;;23.15;63.62;99833.81;5055100;28;20044;-77
2022/09/15 04:29:33;;;;;;;10.32;3.17;;;;;;;23.22;63.26;99835.66;5053101;28;20047;-77
2022/09/15 04:32:18;;;;;;;5.32;3.13;;;;;;;23.09;63.66;99846.59;5048746;28;20115;-77
2022/09/15 04:35:04;;;;;;;7.57;3.05;;;;;;;23.07;63.79;99849.00;5060772;28;20056;-77
2022/09/15 04:37:48;;;;;;;7.60;3.20;;;;;;;22.95;64.48;99847.63;5057636;28;20052;-77
2022/09/15 04:40:33;;;;;;;5.65;3.03;;;;;;;23.05;64.45;99850.63;5054476;28;20044;-76
2022/09/15 04:43:17;;;;;;;;;;;;;;;23.23;63.79;99848.34;5050404;28;20048;-77
2022/09/15 04:46:02;;;;;;;5.17;2.90;;;;;;;23.17;63.59;99850.81;5064578;28;19917;-77
2022/09/15 04:48:47;;;;;;;6.68;2.80;;;;;;;23.31;63.10;99852.59;5059317;28;20044;-76
2022/09/15 04:51:32;;;;;;;10.32;4.63;;;;;;;23.36;63.06;99854.88;5045534;28;20055;-77
2022/09/15 04:54:17;;;;;;;9.20;3.45;;;;;;;23.17;63.53;99850.81;5063462;28;20044;-77
2022/09/15 04:57:01;;;;;;;5.30;3.78;;;;;;;23.20;63.35;99863.06;5051920;28;20060;-77
2022/09/15 04:59:46;;;;;;;11.57;3.40;;;;;;;23.33;63.21;99883.44;5032348;28;20530;-78
2022/09/15 05:02:32;;;;;;;10.25;3.97;;;;;;;23.22;63.39;99871.72;5046369;28;20048;-77
2022/09/15 05:05:16;;;;;;;15.68;4.65;;;;;;;23.27;63.47;99879.56;5051019;28;20051;-77
2022/09/15 05:08:02;;;;;;;5.35;2.90;;;;;;;23.33;63.18;99897.31;5049968;28;20044;-77
2022/09/15 05:10:47;;;;;;;12.98;3.33;;;;;;;23.25;63.28;99901.44;5051758;28;20047;-77
2022/09/15 05:13:33;;;;;;;9.82;3.05;;;;;;;23.08;63.91;99908.03;5055329;28;20095;-77
2022/09/15 05:16:20;;;;;;;11.05;3.30;;;;;;;23.13;64.01;99907.56;5071948;28;20043;-77
2022/09/15 05:19:05;;;;;;;9.32;3.28;;;;;;;22.98;64.16;99913.31;5072188;28;20055;-77
2022/09/15 05:21:49;;;;;;;10.00;3.17;;;;;;;22.83;64.74;99914.72;5067832;28;20048;-77
2022/09/15 05:24:34;;;;;;;14.63;4.88;;;;;;;22.77;65.18;99921.94;5052254;28;20047;-77
2022/09/15 05:27:18;;;;;;;13.55;3.35;;;;;;;22.73;65.65;99932.28;5052196;28;20400;-77
2022/09/15 05:30:04;;;;;;;13.10;3.70;;;;;;;22.74;65.47;99942.19;5052098;28;20048;-77
2022/09/15 05:32:48;;;;;;;14.30;4.95;;;;;;;22.40;66.19;99938.63;5055091;28;20048;-77
2022/09/15 05:35:33;;;;;;;15.18;4.15;;;;;;;22.28;67.40;99942.72;5060506;28;20048;-77
2022/09/15 05:38:18;;;;;;;16.00;5.22;;;;;;;21.68;68.54;99946.06;5071459;28;20514;-77
2022/09/15 05:41:04;;;;;;;15.27;4.72;;;;;;;21.64;69.42;99943.31;5071827;28;20162;-77
2022/09/15 05:43:49;;;;;;;21.67;6.50;;;;;;;21.58;69.88;99944.97;5072202;28;20051;-77
2022/09/15 05:46:34;;;;;;;14.90;5.15;;;;;;;21.52;70.26;99945.81;5072776;28;20051;-77
2022/09/15 05:49:18;;;;;;;21.58;5.38;;;;;;;21.39;70.70;99937.22;5071671;28;20601;-77
2022/09/15 05:52:03;;;;;;;;;;;;;;;21.70;70.19;99938.94;5072246;28;20408;-77
2022/09/15 05:54:47;;;;;;;15.07;4.53;;;;;;;21.70;70.19;99935.38;5060503;28;19917;-76
2022/09/15 05:57:32;;;;;;;26.15;5.03;;;;;;;22.27;68.50;99940.34;5047675;28;20039;-77
2022/09/15 06:00:17;;;;;;;14.73;5.47;;;;;;;22.23;67.92;99929.31;5050968;28;20048;-77
2022/09/15 06:03:02;;;;;;;7.45;3.80;;;;;;;22.29;67.37;99933.22;5055079;28;20043;-77
2022/09/15 06:05:47;;;;;;;11.18;5.13;;;;;;;22.32;67.33;99946.22;5061304;28;20412;-77
2022/09/15 06:08:34;;;;;;;12.48;5.18;;;;;;;22.19;67.58;99950.75;5050303;28;20047;-77
2022/09/15 06:11:23;;;;;;;15.90;4.10;;;;;;;22.12;68.17;99939.72;5062795;28;20407;-77
2022/09/15 06:14:12;;;;;;;9.32;3.88;;;;;;;22.09;68.48;99957.97;5057565;28;20051;-76
2022/09/15 06:16:56;;;;;;;26.50;5.32;;;;;;;22.00;69.16;99952.09;5059401;28;20411;-76
2022/09/15 06:19:41;;;;;;;;;;;;;;;22.23;68.22;99956.25;5057031;28;20040;-76
2022/09/15 06:22:26;;;;;;;14.77;4.68;;;;;;;22.12;68.64;99956.34;5056130;28;19913;-76
2022/09/15 06:25:12;;;;;;;18.17;4.57;;;;;;;21.98;69.09;99960.06;5055795;28;20052;-76
2022/09/15 06:27:57;;;;;;;19.40;4.97;;;;;;;22.05;69.14;99962.75;5056047;28;20056;-76
2022/09/15 06:30:41;;;;;;;29.75;4.97;;;;;;;22.13;68.74;99957.94;5055230;28;20048;-76
2022/09/15 06:33:26;;;;;;;23.23;5.70;;;;;;;22.08;69.11;99961.16;5055518;28;20047;-77
2022/09/15 06:36:12;;;;;;;15.43;4.90;;;;;;;21.86;70.03;99966.06;5056003;28;20044;-77
2022/09/15 06:38:57;;;;;;;15.25;4.15;;;;;;;22.00;69.76;99971.50;5055137;28;20056;-77
2022/09/15 06:41:42;;;;;;;12.88;4.72;;;;;;;22.12;69.38;99964.66;5055535;28;20055;-77
2022/09/15 06:44:32;;;;;;;18.10;5.05;;;;;;;21.96;70.46;99986.56;5054277;28;20400;-76
2022/09/15 06:47:16;;;;;;;18.30;4.95;;;;;;;21.89;70.99;99992.16;5058679;28;20052;-78
2022/09/15 06:50:02;;;;;;;17.10;4.88;;;;;;;21.60;71.81;99984.06;5050811;28;20044;-77
2022/09/15 06:52:46;;;;;;;11.00;4.60;;;;;;;21.57;72.65;99979.38;5061155;28;20047;-77
2022/09/15 06:55:32;;;;;;;11.90;4.05;;;;;;;22.08;70.43;99986.06;5063275;28;20051;-77
2022/09/15 06:58:17;;;;;;;9.95;3.75;;;;;;;22.37;69.28;99990.09;5049767;28;20051;-77
2022/09/15 07:01:03;;;;;;;;;;;;;;;22.80;67.95;99987.66;5056169;28;20522;-77
2022/09/15 07:03:48;;;;;;;12.00;4.07;;;;;;;23.22;66.01;99980.72;5055710;28;19913;-77
2022/09/15 07:06:33;;;;;;;17.25;5.68;;;;;;;23.21;67.17;99983.94;5059360;28;20056;-77
2022/09/15 07:09:18;;;;;;;9.82;5.07;;;;;;;23.57;65.48;99982.19;5054679;28;20408;-77
2022/09/15 07:12:03;;;;;;;18.33;6.50;;;;;;;24.11;63.82;99995.97;5054859;28;20044;-77
2022/09/15 07:14:48;;;;;;;9.50;4.28;;;;;;;24.22;63.04;99994.59;5048243;28;20070;-77
2022/09/15 07:17:32;;;;;;;;;;;;;;;24.19;62.81;99994.66;5060786;28;20518;-77
2022/09/15 07:20:17;;;;;;;8.50;5.93;;;;;;;24.32;62.18;99992.03;5066752;28;19916;-78
2022/09/15 07:23:02;;;;;;;;;;;;;;;23.77;63.63;99980.25;5075099;28;20047;-78
2022/09/15 07:25:46;;;;;;;9.52;5.43;;;;;;;24.31;62.42;99971.78;5070165;28;20306;-77
2022/09/15 07:28:31;;;;;;;10.43;5.70;;;;;;;24.58;61.68;99982.78;5053338;28;20373;-77
2022/09/15 07:31:20;;;;;;;17.45;5.90;;;;;;;24.76;61.11;99974.06;5059767;28;20511;-77
2022/09/15 07:34:06;;;;;;;15.45;5.85;;;;;;;24.83;60.99;99968.38;5070081;28;20051;-77
2022/09/15 07:36:51;;;;;;;17.80;5.78;;;;;;;24.76;61.36;99966.50;5071190;28;20058;-77
2022/09/15 07:39:35;;;;;;;14.93;6.10;;;;;;;24.77;61.82;99962.53;5073587;28;20051;-77
2022/09/15 07:42:20;;;;;;;17.45;6.05;;;;;;;24.93;61.47;99970.16;5063679;28;20047;-78
2022/09/15 07:45:05;;;;;;;12.02;5.95;;;;;;;25.12;61.01;99963.75;5068143;28;20403;-79
2022/09/15 07:47:50;;;;;;;11.98;6.18;;;;;;;25.20;60.58;99970.72;5057107;28;20088;-78
2022/09/15 07:50:35;;;;;;;9.88;6.13;;;;;;;25.23;60.50;99966.31;5058169;28;20032;-78
2022/09/15 07:53:20;;;;;;;13.90;7.32;;;;;;;25.05;60.90;99972.25;5056641;28;20051;-78
2022/09/15 07:56:05;;;;;;;13.35;5.95;;;;;;;25.40;60.36;99968.66;5050925;28;20558;-78
2022/09/15 07:58:50;;;;;;;13.18;5.72;;;;;;;25.42;60.10;99973.78;5056510;28;20142;-78
2022/09/15 08:01:35;;;;;;;38.53;9.27;;;;;;;24.84;62.24;99978.28;5044019;28;20044;-81
2022/09/15 08:04:20;;;;;;;18.75;8.30;;;;;;;24.42;63.24;99975.16;5044527;28;20075;-82
2022/09/15 08:07:04;;;;;;;20.15;7.90;;;;;;;23.49;66.36;99977.97;5073169;28;20052;-82
2022/09/15 08:09:49;;;;;;;17.88;8.68;;;;;;;23.36;67.87;99963.09;5081261;28;20530;-82
2022/09/15 08:12:35;;;;;;;19.05;8.35;;;;;;;23.13;69.56;99966.59;5081327;28;20048;-82
2022/09/15 08:15:20;;;;;;;14.10;10.25;;;;;;;22.97;70.47;99972.75;5081003;28;20093;-82
2022/09/15 08:18:05;;;;;;;19.90;10.93;;;;;;;22.88;70.84;99958.63;5081433;28;20522;-82
2022/09/15 08:20:50;;;;;;;19.73;10.68;;;;;;;22.89;71.03;99964.97;5081401;28;20047;-82
2022/09/15 08:23:35;;;;;;;;;;;;;;;23.18;69.71;99966.13;5086607;28;20039;-82
2022/09/15 08:26:20;;;;;;;26.50;10.10;;;;;;;23.49;68.08;99964.09;5083686;28;19912;-82
2022/09/15 08:29:05;;;;;;;36.17;10.52;;;;;;;23.37;68.97;99956.31;5081265;28;20052;-82
2022/09/15 08:31:49;;;;;;;21.90;9.27;;;;;;;23.75;67.39;99949.38;5082475;28;20055;-82
2022/09/15 08:34:34;;;;;;;16.48;8.73;;;;;;;24.04;67.49;99943.31;5080563;28;20055;-82
2022/09/15 08:37:19;;;;;;;;;;;;;;;23.86;66.29;99949.97;5081587;28;20056;-82
2022/09/15 08:40:05;;;;;;;15.82;8.70;;;;;;;23.86;65.50;99941.66;5080320;28;19916;-82
2022/09/15 08:42:54;;;;;;;22.73;8.30;;;;;;;24.30;63.33;99934.09;5084358;28;20111;-82
2022/09/15 08:45:48;;;;;;;15.32;7.57;;;;;;;24.27;63.46;99935.75;5081951;28;20545;-82
2022/09/15 08:48:44;;;;;;;20.48;8.88;;;;;;;24.35;63.31;99936.38;5085340;28;20063;-82
2022/09/15 08:51:47;;;;;;;19.83;7.55;;;;;;;24.17;63.56;99930.41;5081352;28;20043;-82
2022/09/15 08:54:32;;;;;;;18.15;7.47;;;;;;;24.09;63.72;99934.47;5080380;28;20051;-82
2022/09/15 08:57:20;;;;;;;21.95;7.85;;;;;;;24.29;63.73;99933.31;5081326;28;20051;-82
2022/09/15 09:00:14;;;;;;;18.25;7.68;;;;;;;24.37;62.96;99933.19;5082080;28;20068;-84
2022/09/15 09:02:59;;;;;;;12.88;7.07;;;;;;;24.40;62.96;99932.31;5043463;22;20559;-77
2022/09/15 09:05:53;;;;;;;19.63;7.35;;;;;;;24.53;62.37;99925.66;5012970;28;20053;-78
2022/09/15 09:09:02;;;;;;;16.83;7.80;;;;;;;24.64;62.41;99920.66;5012747;28;20121;-79
2022/09/15 09:11:56;;;;;;;13.98;7.95;;;;;;;24.68;63.03;99924.19;5012821;28;20052;-78
2022/09/15 09:14:50;;;;;;;17.40;7.70;;;;;;;24.92;62.59;99915.72;5012934;28;20045;-79
2022/09/15 09:17:53;;;;;;;20.90;8.15;;;;;;;25.05;61.34;99911.03;5012812;28;20336;-78
2022/09/15 09:20:59;;;;;;;18.63;7.72;;;;;;;25.27;61.68;99911.34;5015670;28;20567;-78
2022/09/15 09:23:51;;;;;;;19.75;6.63;;;;;;;25.26;61.20;99901.41;5013255;28;20417;-79
2022/09/15 09:26:36;;;;;;;13.45;7.00;;;;;;;25.46;59.93;99900.09;5016351;28;20048;-78
2022/09/15 09:29:31;;;;;;;11.93;5.07;;;;;;;25.51;59.46;99896.78;5016345;28;20045;-79
2022/09/15 09:32:25;;;;;;;14.07;4.70;;;;;;;25.55;59.12;99893.94;5016607;28;20064;-79
2022/09/15 09:35:45;;;;;;;15.98;4.07;;;;;;;25.60;58.79;99893.41;5020856;28;20048;-78
2022/09/15 09:38:41;;;;;;;13.90;4.50;;;;;;;25.87;57.95;99893.09;5006262;28;20045;-78
2022/09/15 09:41:34;;;;;;;12.45;3.50;;;;;;;25.89;58.02;99885.09;4995955;28;20045;-81
2022/09/15 09:44:19;;;;;;;18.10;3.25;;;;;;;25.94;57.18;99876.19;4992813;28;20053;-81
2022/09/15 09:47:04;;;;;;;12.88;2.95;;;;;;;25.96;56.74;99868.16;4991558;28;20049;-80
2022/09/15 09:49:49;;;;;;;13.50;4.43;;;;;;;26.06;55.63;99866.34;5009603;28;20508;-76
2022/09/15 09:52:38;;;;;;;13.63;2.83;;;;;;;26.17;55.77;99862.00;5007151;28;20049;-78
2022/09/15 09:55:28;;;;;;;13.48;3.75;;;;;;;26.22;56.16;99858.69;4992611;28;20049;-79
2022/09/15 09:58:18;;;;;;;12.70;2.60;;;;;;;26.49;56.22;99857.53;4995810;28;20082;-80
2022/09/15 10:01:18;;;;;;;13.25;3.22;;;;;;;26.33;54.63;99850.81;4993155;28;20049;-79
2022/09/15 10:04:16;;;;;;;15.48;3.33;;;;;;;26.41;54.68;99851.38;4992937;28;20073;-77
2022/09/15 10:07:00;;;;;;;11.80;3.60;;;;;;;26.42;54.77;99854.94;4992741;28;20045;-78
2022/09/15 10:09:49;;;;;;;22.85;2.92;;;;;;;26.43;54.09;99848.91;4992494;28;20050;-79
2022/09/15 10:12:40;;;;;;;16.25;3.30;;;;;;;26.72;54.22;99846.03;4993048;28;20050;-78
2022/09/15 10:15:33;;;;;;;7.85;2.00;;;;;;;26.58;52.92;99844.47;4992923;28;20053;-78
2022/09/15 10:18:25;;;;;;;13.95;2.42;;;;;;;26.96;53.36;99847.31;4992178;28;20065;-79
2022/09/15 10:21:13;;;;;;;10.45;2.35;;;;;;;27.15;52.43;99851.84;4992495;28;20065;-79
2022/09/15 10:24:35;;;;;;;15.32;2.20;;;;;;;27.20;50.76;99854.06;5007014;28;20428;-79
2022/09/15 10:27:26;;;;;;;8.52;1.75;;;;;;;27.44;51.65;99850.88;5009265;28;20077;-80
2022/09/15 10:30:13;;;;;;;6.95;2.25;;;;;;;27.43;51.54;99861.28;5007042;28;20122;-78
2022/09/15 10:33:22;;;;;;;9.32;1.73;;;;;;;27.48;50.85;99854.34;4992060;28;20072;-80
2022/09/15 10:36:09;;;;;;;10.48;2.95;;;;;;;27.58;51.43;99845.63;4995902;28;20041;-80
2022/09/15 10:39:02;;;;;;;13.60;3.08;;;;;;;27.58;51.67;99839.28;5010114;28;20516;-78
2022/09/15 10:42:12;;;;;;;16.63;4.65;;;;;;;27.80;51.50;99828.88;5012530;28;20068;-79
2022/09/15 10:45:10;;;;;;;14.27;4.13;;;;;;;27.77;50.91;99818.63;5013569;28;20045;-79
2022/09/15 10:48:28;;;;;;;9.23;3.28;;;;;;;27.81;51.38;99813.69;5012205;28;20065;-78
2022/09/15 10:51:16;;;;;;;7.75;3.45;;;;;;;27.86;50.92;99804.72;5024444;28;20048;-79
2022/09/15 10:54:33;;;;;;;14.45;4.32;;;;;;;28.10;50.97;99785.44;5033383;28;20049;-79
2022/09/15 10:57:39;;;;;;;10.23;3.97;;;;;;;28.18;50.16;99786.00;5032699;28;20060;-79
2022/09/15 11:00:31;;;;;;;10.13;3.80;;;;;;;28.24;50.29;99784.16;5029331;28;20049;-79
2022/09/15 11:03:38;;;;;;;23.58;6.03;;;;;;;28.38;49.67;99780.81;5022420;28;20064;-79
2022/09/15 11:06:44;;;;;;;8.82;3.47;;;;;;;28.39;49.93;99780.34;5035319;28;20048;-80
2022/09/15 11:09:52;;;;;;;12.85;5.82;;;;;;;28.47;49.74;99780.84;5034927;28;20065;-80
2022/09/15 11:12:42;;;;;;;15.50;3.05;;;;;;;28.65;48.82;99768.94;5033820;28;20052;-78
2022/09/15 11:15:42;;;;;;;13.15;4.00;;;;;;;28.88;47.83;99769.19;5034945;28;20428;-80
2022/09/15 11:18:36;;;;;;;13.50;3.28;;;;;;;28.86;46.77;99768.09;5015876;28;20037;-79
2022/09/15 11:21:46;;;;;;;9.83;2.30;;;;;;;29.07;47.21;99775.59;5020956;28;20057;-79
2022/09/15 11:24:47;;;;;;;8.13;1.83;;;;;;;29.01;45.18;99785.06;4996124;28;20308;-79
2022/09/15 11:27:54;;;;;;;8.82;2.33;;;;;;;29.11;45.60;99775.44;5007044;28;20412;-77
2022/09/15 11:30:46;;;;;;;7.28;1.38;;;;;;;29.14;45.30;99777.31;5022720;28;20045;-78
2022/09/15 11:34:09;;;;;;;10.65;2.28;;;;;;;29.07;44.35;99777.63;5019382;28;20401;-79
2022/09/15 11:37:04;;;;;;;13.73;1.98;;;;;;;29.28;44.01;99776.72;5016170;28;20052;-77
2022/09/15 11:40:06;;;;;;;3.67;1.15;;;;;;;29.26;44.07;99771.56;5020014;28;20052;-79
2022/09/15 11:42:58;;;;;;;4.20;1.40;;;;;;;28.91;44.16;99765.47;5032234;28;20060;-78
2022/09/15 11:45:49;;;;;;;16.17;3.28;;;;;;;29.14;43.79;99774.53;5020568;28;20048;-77
2022/09/15 11:48:50;;;;;;;12.95;1.98;;;;;;;29.33;43.39;99764.91;5011080;28;20661;-77
2022/09/15 11:51:41;;;;;;;5.45;1.42;;;;;;;29.20;43.99;99758.66;4994576;28;20065;-77
2022/09/15 11:54:39;;;;;;;9.25;2.22;;;;;;;29.42;43.72;99759.31;5013646;28;20053;-77
2022/09/15 11:57:29;;;;;;;13.07;2.47;;;;;;;29.63;43.62;99747.16;4995148;28;20053;-77
2022/09/15 12:00:15;;;;;;;8.52;2.10;;;;;;;29.26;44.67;99735.16;5008188;28;20441;-78
2022/09/15 12:03:18;;;;;;;10.82;2.08;;;;;;;29.45;43.65;99741.59;4995117;28;20516;-77
2022/09/15 12:06:13;;;;;;;12.48;2.33;;;;;;;29.73;44.06;99742.31;5015476;28;20065;-78
2022/09/15 12:09:02;;;;;;;;;;;;;;;29.55;42.37;99734.72;5017793;28;20057;-77
2022/09/15 12:11:52;;;;;;;6.50;2.10;;;;;;;29.34;41.65;99741.28;5011426;28;19913;-77
2022/09/15 12:14:46;;;;;;;7.30;1.95;;;;;;;29.49;42.26;99742.19;5012889;28;20049;-77
2022/09/15 12:17:43;;;;;;;9.82;1.75;;;;;;;29.67;42.15;99749.78;5020272;28;20518;-78
2022/09/15 12:20:39;;;;;;;13.68;1.75;;;;;;;29.65;42.93;99739.06;5033995;28;20409;-80
2022/09/15 12:23:39;;;;;;;6.90;1.10;;;;;;;29.84;41.56;99751.03;5038952;28;20044;-77
2022/09/15 12:26:25;;;;;;;9.20;1.48;;;;;;;29.89;41.65;99756.03;5033976;28;20088;-78
2022/09/15 12:29:25;;;;;;;7.30;1.90;;;;;;;29.98;41.43;99755.22;5027327;28;20053;-77
2022/09/15 12:32:19;;;;;;;7.60;2.15;;;;;;;29.89;41.23;99750.41;5007515;28;20068;-76
2022/09/15 12:35:24;;;;;;;9.00;1.23;;;;;;;29.83;41.46;99757.88;5009874;28;20050;-77
2022/09/15 12:38:12;;;;;;;6.60;2.72;;;;;;;29.86;41.08;99758.97;5013177;28;20040;-78
2022/09/15 12:40:58;;;;;;;15.05;2.33;;;;;;;29.70;41.35;99757.28;5005064;28;20045;-78
2022/09/15 12:43:52;;;;;;;9.35;1.52;;;;;;;29.39;41.76;99749.06;4994470;28;20053;-80
2022/09/15 12:46:36;;;;;;;4.20;1.10;;;;;;;29.43;42.34;99749.66;4997564;28;20525;-80
2022/09/15 12:49:28;;;;;;;7.45;1.80;;;;;;;29.66;41.72;99745.47;5010510;28;20053;-81
2022/09/15 12:52:15;;;;;;;6.55;1.85;;;;;;;29.76;41.93;99753.34;4993696;28;20049;-78
2022/09/15 12:55:03;;;;;;;8.38;1.83;;;;;;;29.97;41.29;99745.28;5011625;28;20057;-78
2022/09/15 12:57:51;;;;;;;6.65;1.98;;;;;;;29.91;41.73;99744.34;4996080;28;20053;-77
2022/09/15 13:00:38;;;;;;;11.65;2.13;;;;;;;30.04;41.67;99753.34;5013267;28;20676;-77
2022/09/15 13:03:28;;;;;;;9.13;2.10;;;;;;;29.76;42.22;99747.00;4993791;28;20053;-79
2022/09/15 13:06:21;;;;;;;7.75;1.73;;;;;;;29.76;42.26;99736.53;4993634;28;20057;-78
2022/09/15 13:09:05;;;;;;;10.93;1.80;;;;;;;29.76;43.06;99739.34;4993398;28;20516;-78
2022/09/15 13:11:53;;;;;;;9.63;2.22;;;;;;;29.94;42.20;99729.38;4993764;28;20049;-77
2022/09/15 13:14:43;;;;;;;10.13;2.17;;;;;;;29.73;41.28;99737.50;4993711;28;20512;-77
2022/09/15 13:17:29;;;;;;;7.72;1.42;;;;;;;29.88;42.31;99734.03;4993371;28;20520;-77
2022/09/15 13:20:22;;;;;;;6.90;2.03;;;;;;;29.92;41.85;99729.09;4993280;28;20046;-77